This is the latest recevied weather packets stored in our database for station/object F5ZVO. If no packets are shown the sender has not sent any weather packets the latest 10 day(s).
| Time | Temp. | Humidity | Pressure | Rain* | Wind** | Luminosity | Snow |
|---|---|---|---|---|---|---|---|
| 1788082206 | 64° F | 40% | 765 mmHg | 0 in | 12 mph, 207° | - | - |
| 1788080403 | 63° F | 40% | 764.8 mmHg | 0 in | 12 mph, 205° | - | - |
| 1788078606 | 63° F | 40% | 764.8 mmHg | 0 in | 12 mph, 203° | - | - |
| 1788076805 | 62° F | 41% | 764.8 mmHg | 0 in | 12 mph, 199° | - | - |
| 1788075008 | 61° F | 42% | 764.6 mmHg | 0 in | 10 mph, 200° | - | - |
| 1788073203 | 60° F | 43% | 764.6 mmHg | 0 in | 10 mph, 197° | - | - |
| 1788071406 | 59° F | 47% | 764.8 mmHg | 0 in | 10 mph, 195° | - | - |
| 1788069607 | 58° F | 49% | 764.8 mmHg | 0 in | 10 mph, 195° | - | - |
| 1788067806 | 55° F | 53% | 765.1 mmHg | 0 in | 9 mph, 196° | - | - |
| 1788064205 | 53° F | 58% | 765.6 mmHg | 0 in | 7 mph, 202° | - | - |
| 1788062402 | 53° F | 63% | 765.7 mmHg | 0 in | 7 mph, 210° | - | - |
| 1788060603 | 53° F | 60% | 765.7 mmHg | 0 in | 6 mph, 203° | - | - |
| 1788058808 | 53° F | 60% | 765.5 mmHg | 0 in | 7 mph, 206° | - | - |
| 1788057004 | 54° F | 52% | 765.1 mmHg | 0 in | 8 mph, 204° | - | - |
| 1788053406 | 52° F | 58% | 765.3 mmHg | 0 in | 6 mph, 207° | - | - |
| 1788051607 | 52° F | 62% | 765.4 mmHg | 0 in | 5 mph, 212° | - | - |
| 1788049803 | 52° F | 62% | 765.4 mmHg | 0 in | 5 mph, 210° | - | - |
| 1788048005 | 51° F | 67% | 765.7 mmHg | 0 in | 3 mph, 218° | - | - |
| 1788046205 | 52° F | 66% | 765.7 mmHg | 0 in | 4 mph, 223° | - | - |
| 1788044403 | 51° F | 68% | 766.2 mmHg | 0 in | 3 mph, 231° | - | - |
| 1788043841 | 52° F | 67% | 766.3 mmHg | 0 in | 2 mph, 256° | - | - |
* Rain latest hour (hover to see other rain measurements)
** Current wind speed in m/s (hover to see current wind gust speed)